sensor_id;sensor_type;location;lat;lon;timestamp;pressure;altitude;pressure_sealevel;temperature;humidity
7966;BME280;4028;43.272;26.932;2023-06-04T00:00:23;99362.22;;;18.04;100.00
7966;BME280;4028;43.272;26.932;2023-06-04T00:02:49;99357.81;;;17.97;100.00
7966;BME280;4028;43.272;26.932;2023-06-04T00:05:14;99365.84;;;17.97;100.00
7966;BME280;4028;43.272;26.932;2023-06-04T00:07:40;99359.38;;;17.91;100.00
7966;BME280;4028;43.272;26.932;2023-06-04T00:10:06;99363.19;;;17.97;100.00
7966;BME280;4028;43.272;26.932;2023-06-04T00:12:31;99365.09;;;17.88;100.00
7966;BME280;4028;43.272;26.932;2023-06-04T00:14:57;99372.94;;;17.89;100.00
7966;BME280;4028;43.272;26.932;2023-06-04T00:17:22;99376.44;;;17.90;100.00
7966;BME280;4028;43.272;26.932;2023-06-04T00:19:48;99371.75;;;17.92;100.00
7966;BME280;4028;43.272;26.932;2023-06-04T00:22:13;99378.56;;;17.80;100.00
7966;BME280;4028;43.272;26.932;2023-06-04T00:24:39;99376.28;;;17.77;100.00
7966;BME280;4028;43.272;26.932;2023-06-04T00:27:07;99385.97;;;17.78;100.00
7966;BME280;4028;43.272;26.932;2023-06-04T00:29:32;99381.41;;;17.63;100.00
7966;BME280;4028;43.272;26.932;2023-06-04T00:31:58;99385.00;;;17.71;100.00
7966;BME280;4028;43.272;26.932;2023-06-04T00:34:23;99391.28;;;17.63;100.00
7966;BME280;4028;43.272;26.932;2023-06-04T00:36:49;99382.22;;;17.64;100.00
7966;BME280;4028;43.272;26.932;2023-06-04T00:39:14;99384.81;;;17.57;100.00
7966;BME280;4028;43.272;26.932;2023-06-04T00:41:40;99392.00;;;17.57;100.00
7966;BME280;4028;43.272;26.932;2023-06-04T00:44:05;99392.84;;;17.57;100.00
7966;BME280;4028;43.272;26.932;2023-06-04T00:46:32;99393.19;;;17.54;100.00
7966;BME280;4028;43.272;26.932;2023-06-04T00:48:58;99378.78;;;17.55;100.00
7966;BME280;4028;43.272;26.932;2023-06-04T00:51:24;99387.22;;;17.52;100.00
7966;BME280;4028;43.272;26.932;2023-06-04T00:53:50;99383.56;;;17.45;100.00
7966;BME280;4028;43.272;26.932;2023-06-04T00:56:16;99387.53;;;17.34;100.00
7966;BME280;4028;43.272;26.932;2023-06-04T00:58:43;99391.03;;;17.35;100.00
7966;BME280;4028;43.272;26.932;2023-06-04T01:04:12;99396.66;;;17.40;100.00
7966;BME280;4028;43.272;26.932;2023-06-04T01:06:43;99391.88;;;17.50;100.00
7966;BME280;4028;43.272;26.932;2023-06-04T01:09:10;99390.13;;;17.42;100.00
7966;BME280;4028;43.272;26.932;2023-06-04T01:11:39;99395.50;;;17.42;100.00
7966;BME280;4028;43.272;26.932;2023-06-04T01:14:06;99408.03;;;17.42;100.00
7966;BME280;4028;43.272;26.932;2023-06-04T01:17:11;99406.09;;;17.36;100.00
7966;BME280;4028;43.272;26.932;2023-06-04T01:25:09;99407.56;;;17.38;100.00
7966;BME280;4028;43.272;26.932;2023-06-04T01:27:38;99413.00;;;17.30;100.00
7966;BME280;4028;43.272;26.932;2023-06-04T01:30:11;99411.75;;;17.18;100.00
7966;BME280;4028;43.272;26.932;2023-06-04T01:32:38;99411.25;;;17.14;100.00
7966;BME280;4028;43.272;26.932;2023-06-04T01:35:11;99419.84;;;17.10;100.00
7966;BME280;4028;43.272;26.932;2023-06-04T01:37:36;99429.22;;;17.06;100.00
7966;BME280;4028;43.272;26.932;2023-06-04T01:40:02;99419.97;;;17.17;100.00
7966;BME280;4028;43.272;26.932;2023-06-04T01:42:28;99431.72;;;17.07;100.00
7966;BME280;4028;43.272;26.932;2023-06-04T01:44:53;99428.56;;;17.04;100.00
7966;BME280;4028;43.272;26.932;2023-06-04T01:47:19;99424.00;;;16.89;100.00
7966;BME280;4028;43.272;26.932;2023-06-04T01:49:44;99432.97;;;16.74;100.00
7966;BME280;4028;43.272;26.932;2023-06-04T01:52:10;99432.97;;;16.74;100.00
7966;BME280;4028;43.272;26.932;2023-06-04T01:54:36;99427.28;;;16.69;100.00
7966;BME280;4028;43.272;26.932;2023-06-04T01:57:04;99424.78;;;16.67;100.00
7966;BME280;4028;43.272;26.932;2023-06-04T01:59:30;99427.19;;;16.54;100.00
7966;BME280;4028;43.272;26.932;2023-06-04T02:01:57;99433.91;;;16.42;100.00
7966;BME280;4028;43.272;26.932;2023-06-04T02:04:23;99438.03;;;16.52;100.00
7966;BME280;4028;43.272;26.932;2023-06-04T02:06:50;99438.41;;;16.49;100.00
7966;BME280;4028;43.272;26.932;2023-06-04T02:09:15;99435.06;;;16.47;100.00
7966;BME280;4028;43.272;26.932;2023-06-04T02:11:41;99440.88;;;16.59;100.00
7966;BME280;4028;43.272;26.932;2023-06-04T02:14:06;99432.03;;;16.58;100.00
7966;BME280;4028;43.272;26.932;2023-06-04T02:16:32;99440.88;;;16.59;100.00
7966;BME280;4028;43.272;26.932;2023-06-04T02:18:57;99443.03;;;16.55;100.00
7966;BME280;4028;43.272;26.932;2023-06-04T02:21:24;99451.69;;;16.66;100.00
7966;BME280;4028;43.272;26.932;2023-06-04T02:23:50;99445.19;;;16.60;100.00
7966;BME280;4028;43.272;26.932;2023-06-04T02:26:15;99444.19;;;16.61;100.00
7966;BME280;4028;43.272;26.932;2023-06-04T02:28:41;99442.72;;;16.58;100.00
7966;BME280;4028;43.272;26.932;2023-06-04T02:31:06;99416.75;;;16.36;100.00
7966;BME280;4028;43.272;26.932;2023-06-04T02:33:32;99455.56;;;16.55;100.00
7966;BME280;4028;43.272;26.932;2023-06-04T02:35:57;99449.72;;;16.59;100.00
7966;BME280;4028;43.272;26.932;2023-06-04T02:38:23;99465.22;;;16.64;100.00
7966;BME280;4028;43.272;26.932;2023-06-04T02:40:48;99457.88;;;16.58;100.00
7966;BME280;4028;43.272;26.932;2023-06-04T02:43:14;99464.09;;;16.50;100.00
7966;BME280;4028;43.272;26.932;2023-06-04T02:45:40;99464.53;;;16.62;100.00
7966;BME280;4028;43.272;26.932;2023-06-04T02:48:05;99463.38;;;16.64;100.00
7966;BME280;4028;43.272;26.932;2023-06-04T02:50:31;99464.38;;;16.63;100.00
7966;BME280;4028;43.272;26.932;2023-06-04T02:52:56;99455.59;;;16.47;100.00
7966;BME280;4028;43.272;26.932;2023-06-04T02:55:22;99472.09;;;16.58;100.00
7966;BME280;4028;43.272;26.932;2023-06-04T02:57:47;99472.63;;;16.54;100.00
7966;BME280;4028;43.272;26.932;2023-06-04T03:00:14;99477.97;;;16.46;100.00
7966;BME280;4028;43.272;26.932;2023-06-04T03:02:44;99478.09;;;16.52;100.00
7966;BME280;4028;43.272;26.932;2023-06-04T03:05:14;99474.13;;;16.48;100.00
7966;BME280;4028;43.272;26.932;2023-06-04T03:07:41;99470.41;;;16.57;100.00
7966;BME280;4028;43.272;26.932;2023-06-04T03:10:09;99470.38;;;16.66;100.00
7966;BME280;4028;43.272;26.932;2023-06-04T03:12:35;99478.38;;;16.66;100.00
7966;BME280;4028;43.272;26.932;2023-06-04T03:15:01;99479.09;;;16.59;100.00
7966;BME280;4028;43.272;26.932;2023-06-04T03:17:27;99478.59;;;16.56;100.00
7966;BME280;4028;43.272;26.932;2023-06-04T03:19:53;99482.94;;;16.57;100.00
7966;BME280;4028;43.272;26.932;2023-06-04T03:22:18;99480.25;;;16.57;100.00
7966;BME280;4028;43.272;26.932;2023-06-04T03:24:44;99456.13;;;16.42;100.00
7966;BME280;4028;43.272;26.932;2023-06-04T03:27:10;99486.69;;;16.40;100.00
7966;BME280;4028;43.272;26.932;2023-06-04T03:29:36;99481.28;;;16.48;100.00
7966;BME280;4028;43.272;26.932;2023-06-04T03:32:03;99476.44;;;16.51;100.00
7966;BME280;4028;43.272;26.932;2023-06-04T03:34:29;99481.91;;;16.58;100.00
7966;BME280;4028;43.272;26.932;2023-06-04T03:36:56;99481.06;;;16.66;100.00
7966;BME280;4028;43.272;26.932;2023-06-04T03:39:22;99484.59;;;16.58;100.00
7966;BME280;4028;43.272;26.932;2023-06-04T03:41:48;99481.59;;;16.53;100.00
7966;BME280;4028;43.272;26.932;2023-06-04T03:44:15;99486.13;;;16.52;100.00
7966;BME280;4028;43.272;26.932;2023-06-04T03:46:44;99488.97;;;16.51;100.00
7966;BME280;4028;43.272;26.932;2023-06-04T03:49:10;99485.44;;;16.58;100.00
7966;BME280;4028;43.272;26.932;2023-06-04T03:51:37;99497.28;;;16.56;100.00
7966;BME280;4028;43.272;26.932;2023-06-04T03:54:03;99498.50;;;16.53;100.00
7966;BME280;4028;43.272;26.932;2023-06-04T03:56:28;99498.50;;;16.53;100.00
7966;BME280;4028;43.272;26.932;2023-06-04T03:58:54;99503.78;;;16.61;100.00
7966;BME280;4028;43.272;26.932;2023-06-04T04:01:21;99515.97;;;16.64;100.00
7966;BME280;4028;43.272;26.932;2023-06-04T04:03:48;99514.47;;;16.61;100.00
7966;BME280;4028;43.272;26.932;2023-06-04T04:06:15;99516.81;;;16.56;100.00
7966;BME280;4028;43.272;26.932;2023-06-04T04:08:41;99513.66;;;16.53;100.00
7966;BME280;4028;43.272;26.932;2023-06-04T04:11:13;99520.19;;;16.50;100.00
7966;BME280;4028;43.272;26.932;2023-06-04T04:13:39;99517.31;;;16.60;100.00
7966;BME280;4028;43.272;26.932;2023-06-04T04:16:04;99511.97;;;16.60;100.00
7966;BME280;4028;43.272;26.932;2023-06-04T04:18:34;99515.66;;;16.59;100.00
7966;BME280;4028;43.272;26.932;2023-06-04T04:21:00;99521.47;;;16.62;100.00
7966;BME280;4028;43.272;26.932;2023-06-04T04:23:25;99521.78;;;16.68;100.00
7966;BME280;4028;43.272;26.932;2023-06-04T04:25:52;99528.50;;;16.63;100.00
7966;BME280;4028;43.272;26.932;2023-06-04T04:28:19;99525.94;;;16.78;100.00
7966;BME280;4028;43.272;26.932;2023-06-04T04:30:46;99536.50;;;16.72;100.00
7966;BME280;4028;43.272;26.932;2023-06-04T04:33:12;99537.16;;;16.66;100.00
7966;BME280;4028;43.272;26.932;2023-06-04T04:35:41;99537.69;;;16.61;100.00
7966;BME280;4028;43.272;26.932;2023-06-04T04:38:10;99539.84;;;16.74;100.00
7966;BME280;4028;43.272;26.932;2023-06-04T04:40:36;99536.78;;;16.85;100.00
7966;BME280;4028;43.272;26.932;2023-06-04T04:43:02;99535.44;;;16.89;100.00
7966;BME280;4028;43.272;26.932;2023-06-04T04:45:28;99527.75;;;16.86;100.00
7966;BME280;4028;43.272;26.932;2023-06-04T04:47:53;99538.69;;;16.99;100.00
7966;BME280;4028;43.272;26.932;2023-06-04T04:50:19;99542.75;;;16.95;100.00
7966;BME280;4028;43.272;26.932;2023-06-04T04:52:44;99549.97;;;17.18;100.00
7966;BME280;4028;43.272;26.932;2023-06-04T04:55:10;99546.34;;;17.10;100.00
7966;BME280;4028;43.272;26.932;2023-06-04T04:57:38;99548.72;;;17.28;100.00
7966;BME280;4028;43.272;26.932;2023-06-04T05:00:03;99547.19;;;17.34;100.00
7966;BME280;4028;43.272;26.932;2023-06-04T05:02:35;99560.69;;;17.40;100.00
7966;BME280;4028;43.272;26.932;2023-06-04T05:05:01;99559.22;;;17.30;100.00
7966;BME280;4028;43.272;26.932;2023-06-04T05:07:26;99554.47;;;17.40;100.00
7966;BME280;4028;43.272;26.932;2023-06-04T05:09:52;99558.72;;;17.34;100.00
7966;BME280;4028;43.272;26.932;2023-06-04T05:12:17;99550.63;;;17.42;100.00
7966;BME280;4028;43.272;26.932;2023-06-04T05:14:43;99550.41;;;17.52;100.00
7966;BME280;4028;43.272;26.932;2023-06-04T05:17:09;99557.19;;;17.63;100.00
7966;BME280;4028;43.272;26.932;2023-06-04T05:19:36;99559.03;;;17.85;100.00
7966;BME280;4028;43.272;26.932;2023-06-04T05:22:02;99560.72;;;18.01;100.00
7966;BME280;4028;43.272;26.932;2023-06-04T05:24:28;99560.59;;;18.17;100.00
7966;BME280;4028;43.272;26.932;2023-06-04T05:26:55;99566.88;;;18.25;100.00
7966;BME280;4028;43.272;26.932;2023-06-04T05:29:22;99563.25;;;18.32;100.00
7966;BME280;4028;43.272;26.932;2023-06-04T05:31:47;99568.72;;;18.39;100.00
7966;BME280;4028;43.272;26.932;2023-06-04T05:34:13;99567.06;;;18.38;100.00
7966;BME280;4028;43.272;26.932;2023-06-04T05:36:42;99566.50;;;18.42;100.00
7966;BME280;4028;43.272;26.932;2023-06-04T05:39:08;99581.59;;;18.43;100.00
7966;BME280;4028;43.272;26.932;2023-06-04T05:41:35;99569.81;;;18.30;100.00
7966;BME280;4028;43.272;26.932;2023-06-04T05:44:01;99572.22;;;18.25;100.00
7966;BME280;4028;43.272;26.932;2023-06-04T05:46:27;99566.13;;;18.31;100.00
7966;BME280;4028;43.272;26.932;2023-06-04T05:48:52;99572.59;;;18.36;100.00
7966;BME280;4028;43.272;26.932;2023-06-04T05:51:19;99578.06;;;18.43;100.00
7966;BME280;4028;43.272;26.932;2023-06-04T05:53:45;99573.41;;;18.37;100.00
7966;BME280;4028;43.272;26.932;2023-06-04T05:56:11;99573.97;;;18.47;100.00
7966;BME280;4028;43.272;26.932;2023-06-04T05:58:36;99566.44;;;18.80;100.00
7966;BME280;4028;43.272;26.932;2023-06-04T06:01:02;99573.44;;;19.32;100.00
7966;BME280;4028;43.272;26.932;2023-06-04T06:03:28;99578.81;;;19.68;100.00
7966;BME280;4028;43.272;26.932;2023-06-04T06:05:54;99579.88;;;19.74;100.00
7966;BME280;4028;43.272;26.932;2023-06-04T06:08:20;99579.78;;;20.38;100.00
7966;BME280;4028;43.272;26.932;2023-06-04T06:10:46;99579.19;;;20.71;100.00
7966;BME280;4028;43.272;26.932;2023-06-04T06:13:12;99580.81;;;20.65;100.00
7966;BME280;4028;43.272;26.932;2023-06-04T06:15:38;99579.97;;;20.65;100.00
7966;BME280;4028;43.272;26.932;2023-06-04T06:18:04;99580.25;;;21.24;100.00
7966;BME280;4028;43.272;26.932;2023-06-04T06:20:30;99585.06;;;21.36;100.00
7966;BME280;4028;43.272;26.932;2023-06-04T06:22:55;99586.44;;;21.25;100.00
7966;BME280;4028;43.272;26.932;2023-06-04T06:25:21;99588.69;;;21.15;100.00
7966;BME280;4028;43.272;26.932;2023-06-04T06:27:46;99592.53;;;20.92;100.00
7966;BME280;4028;43.272;26.932;2023-06-04T06:30:13;99577.19;;;20.86;100.00
7966;BME280;4028;43.272;26.932;2023-06-04T06:32:39;99592.69;;;20.84;100.00
7966;BME280;4028;43.272;26.932;2023-06-04T06:35:05;99591.94;;;21.03;100.00
7966;BME280;4028;43.272;26.932;2023-06-04T06:37:30;99599.47;;;21.15;100.00
7966;BME280;4028;43.272;26.932;2023-06-04T06:39:56;99610.25;;;20.80;100.00
7966;BME280;4028;43.272;26.932;2023-06-04T06:42:22;99600.78;;;20.49;100.00
7966;BME280;4028;43.272;26.932;2023-06-04T06:44:48;99595.66;;;20.33;100.00
7966;BME280;4028;43.272;26.932;2023-06-04T06:47:13;99599.47;;;20.17;100.00
7966;BME280;4028;43.272;26.932;2023-06-04T06:49:42;99600.00;;;20.34;100.00
7966;BME280;4028;43.272;26.932;2023-06-04T06:52:08;99607.19;;;20.48;100.00
7966;BME280;4028;43.272;26.932;2023-06-04T06:54:33;99598.22;;;20.69;100.00
7966;BME280;4028;43.272;26.932;2023-06-04T06:56:59;99596.59;;;20.82;100.00
7966;BME280;4028;43.272;26.932;2023-06-04T06:59:24;99598.13;;;20.97;100.00
7966;BME280;4028;43.272;26.932;2023-06-04T07:01:50;99605.63;;;21.09;100.00
7966;BME280;4028;43.272;26.932;2023-06-04T07:04:16;99598.63;;;21.14;100.00
7966;BME280;4028;43.272;26.932;2023-06-04T07:06:42;99608.13;;;21.10;100.00
7966;BME280;4028;43.272;26.932;2023-06-04T07:09:08;99612.00;;;21.49;100.00
7966;BME280;4028;43.272;26.932;2023-06-04T07:11:33;99607.44;;;21.49;100.00
7966;BME280;4028;43.272;26.932;2023-06-04T07:13:59;99617.91;;;21.92;100.00
7966;BME280;4028;43.272;26.932;2023-06-04T07:16:27;99600.47;;;22.54;100.00
7966;BME280;4028;43.272;26.932;2023-06-04T07:18:53;99611.09;;;23.21;100.00
7966;BME280;4028;43.272;26.932;2023-06-04T07:21:19;99605.50;;;23.60;100.00
7966;BME280;4028;43.272;26.932;2023-06-04T07:23:45;99611.88;;;23.73;100.00
7966;BME280;4028;43.272;26.932;2023-06-04T07:26:12;99618.91;;;24.05;100.00
7966;BME280;4028;43.272;26.932;2023-06-04T07:28:38;99623.31;;;24.25;100.00
7966;BME280;4028;43.272;26.932;2023-06-04T07:31:03;99624.16;;;24.25;95.15
7966;BME280;4028;43.272;26.932;2023-06-04T07:33:29;99620.69;;;24.18;100.00
7966;BME280;4028;43.272;26.932;2023-06-04T07:35:54;99624.91;;;23.82;100.00
7966;BME280;4028;43.272;26.932;2023-06-04T07:38:20;99622.94;;;23.58;100.00
7966;BME280;4028;43.272;26.932;2023-06-04T07:40:46;99617.13;;;23.93;100.00
7966;BME280;4028;43.272;26.932;2023-06-04T07:43:13;99624.41;;;23.54;100.00
7966;BME280;4028;43.272;26.932;2023-06-04T07:45:38;99628.00;;;23.48;100.00
7966;BME280;4028;43.272;26.932;2023-06-04T07:48:04;99630.50;;;24.12;100.00
7966;BME280;4028;43.272;26.932;2023-06-04T07:50:29;99624.94;;;24.32;90.07
7966;BME280;4028;43.272;26.932;2023-06-04T07:52:55;99629.19;;;24.22;100.00
7966;BME280;4028;43.272;26.932;2023-06-04T07:55:20;99632.44;;;24.55;99.44
7966;BME280;4028;43.272;26.932;2023-06-04T07:57:46;99629.91;;;24.35;96.27
7966;BME280;4028;43.272;26.932;2023-06-04T08:00:12;99638.72;;;24.24;100.00
7966;BME280;4028;43.272;26.932;2023-06-04T08:02:37;99635.81;;;24.01;100.00
7966;BME280;4028;43.272;26.932;2023-06-04T08:05:03;99636.06;;;23.93;100.00
7966;BME280;4028;43.272;26.932;2023-06-04T08:07:29;99634.44;;;23.85;100.00
7966;BME280;4028;43.272;26.932;2023-06-04T08:09:55;99632.59;;;24.10;100.00
7966;BME280;4028;43.272;26.932;2023-06-04T08:12:22;99633.44;;;24.11;88.38
7966;BME280;4028;43.272;26.932;2023-06-04T08:14:47;99634.94;;;24.00;88.18
7966;BME280;4028;43.272;26.932;2023-06-04T08:17:12;99631.97;;;24.40;97.55
7966;BME280;4028;43.272;26.932;2023-06-04T08:19:38;99632.25;;;24.57;82.87
7966;BME280;4028;43.272;26.932;2023-06-04T08:22:03;99628.53;;;24.26;79.17
7966;BME280;4028;43.272;26.932;2023-06-04T08:24:29;99626.56;;;23.83;85.26
7966;BME280;4028;43.272;26.932;2023-06-04T08:26:55;99633.88;;;24.58;100.00
7966;BME280;4028;43.272;26.932;2023-06-04T08:29:21;99632.00;;;24.33;80.58
7966;BME280;4028;43.272;26.932;2023-06-04T08:31:46;99637.28;;;23.65;84.25
7966;BME280;4028;43.272;26.932;2023-06-04T08:34:12;99640.59;;;23.60;85.88
7966;BME280;4028;43.272;26.932;2023-06-04T08:36:37;99638.50;;;24.01;95.58
7966;BME280;4028;43.272;26.932;2023-06-04T08:39:03;99645.47;;;24.40;87.44
7966;BME280;4028;43.272;26.932;2023-06-04T08:41:30;99640.22;;;24.70;76.85
7966;BME280;4028;43.272;26.932;2023-06-04T08:43:57;99647.31;;;25.08;85.31
7966;BME280;4028;43.272;26.932;2023-06-04T08:46:24;99651.69;;;25.09;71.73
7966;BME280;4028;43.272;26.932;2023-06-04T08:48:50;99645.22;;;25.10;71.53
7966;BME280;4028;43.272;26.932;2023-06-04T08:51:16;99639.53;;;25.48;63.25
7966;BME280;4028;43.272;26.932;2023-06-04T08:53:42;99647.03;;;25.16;58.63
7966;BME280;4028;43.272;26.932;2023-06-04T08:56:08;99646.53;;;24.82;64.60
7966;BME280;4028;43.272;26.932;2023-06-04T08:58:36;99641.25;;;24.87;66.67
7966;BME280;4028;43.272;26.932;2023-06-04T09:01:02;99641.72;;;25.03;60.61
7966;BME280;4028;43.272;26.932;2023-06-04T09:03:28;99653.09;;;25.30;60.46
7966;BME280;4028;43.272;26.932;2023-06-04T09:05:58;99650.25;;;25.25;59.07
7966;BME280;4028;43.272;26.932;2023-06-04T09:08:24;99651.66;;;25.46;60.01
7966;BME280;4028;43.272;26.932;2023-06-04T09:10:53;99654.31;;;25.64;61.21
7966;BME280;4028;43.272;26.932;2023-06-04T09:13:22;99653.28;;;25.65;59.43
7966;BME280;4028;43.272;26.932;2023-06-04T09:16:04;99652.03;;;25.79;60.63
7966;BME280;4028;43.272;26.932;2023-06-04T09:18:31;99647.50;;;25.91;57.73
7966;BME280;4028;43.272;26.932;2023-06-04T09:21:07;99654.16;;;25.77;56.89
7966;BME280;4028;43.272;26.932;2023-06-04T09:23:45;99660.22;;;25.91;56.80
7966;BME280;4028;43.272;26.932;2023-06-04T09:26:11;99653.56;;;26.05;54.63
7966;BME280;4028;43.272;26.932;2023-06-04T09:28:41;99653.69;;;26.10;52.36
7966;BME280;4028;43.272;26.932;2023-06-04T09:31:13;99632.91;;;25.74;53.30
7966;BME280;4028;43.272;26.932;2023-06-04T09:33:47;99661.97;;;25.85;53.74
7966;BME280;4028;43.272;26.932;2023-06-04T09:36:12;99664.31;;;25.63;53.79
7966;BME280;4028;43.272;26.932;2023-06-04T09:38:38;99656.19;;;25.82;54.30
7966;BME280;4028;43.272;26.932;2023-06-04T09:41:04;99655.63;;;25.91;53.38
7966;BME280;4028;43.272;26.932;2023-06-04T09:43:30;99650.47;;;26.02;52.79
7966;BME280;4028;43.272;26.932;2023-06-04T09:46:08;99650.03;;;26.16;53.39
7966;BME280;4028;43.272;26.932;2023-06-04T09:48:35;99651.81;;;26.23;50.71
7966;BME280;4028;43.272;26.932;2023-06-04T09:51:10;99652.25;;;26.08;48.61
7966;BME280;4028;43.272;26.932;2023-06-04T09:53:37;99639.44;;;25.55;46.91
7966;BME280;4028;43.272;26.932;2023-06-04T09:56:04;99649.03;;;25.69;49.87
7966;BME280;4028;43.272;26.932;2023-06-04T09:58:30;99644.19;;;25.59;50.17
7966;BME280;4028;43.272;26.932;2023-06-04T10:00:58;99648.75;;;25.59;50.01
7966;BME280;4028;43.272;26.932;2023-06-04T10:03:24;99645.03;;;25.72;49.78
7966;BME280;4028;43.272;26.932;2023-06-04T10:05:54;99649.03;;;25.69;50.46
7966;BME280;4028;43.272;26.932;2023-06-04T10:08:22;99653.00;;;25.55;48.69
7966;BME280;4028;43.272;26.932;2023-06-04T10:10:55;99655.91;;;25.53;51.67
7966;BME280;4028;43.272;26.932;2023-06-04T10:13:23;99649.22;;;25.56;51.24
7966;BME280;4028;43.272;26.932;2023-06-04T10:15:50;99635.19;;;25.59;52.06
7966;BME280;4028;43.272;26.932;2023-06-04T10:18:16;99641.03;;;25.74;52.37
7966;BME280;4028;43.272;26.932;2023-06-04T10:20:42;99641.00;;;25.81;52.61
7966;BME280;4028;43.272;26.932;2023-06-04T10:23:08;99647.63;;;25.66;50.24
7966;BME280;4028;43.272;26.932;2023-06-04T10:25:37;99653.09;;;25.30;55.61
7966;BME280;4028;43.272;26.932;2023-06-04T10:28:03;99641.88;;;25.45;54.55
7966;BME280;4028;43.272;26.932;2023-06-04T10:30:30;99636.19;;;25.34;54.38
7966;BME280;4028;43.272;26.932;2023-06-04T10:32:59;99640.41;;;25.30;56.37
7966;BME280;4028;43.272;26.932;2023-06-04T10:35:32;99641.19;;;25.49;56.71
7966;BME280;4028;43.272;26.932;2023-06-04T10:38:24;99644.41;;;25.58;54.61
7966;BME280;4028;43.272;26.932;2023-06-04T10:40:49;99643.13;;;25.60;53.61
7966;BME280;4028;43.272;26.932;2023-06-04T10:43:15;99643.16;;;25.42;54.17
7966;BME280;4028;43.272;26.932;2023-06-04T10:45:42;99643.00;;;25.37;54.05
7966;BME280;4028;43.272;26.932;2023-06-04T10:48:09;99643.38;;;25.40;54.90
7966;BME280;4028;43.272;26.932;2023-06-04T10:50:48;99644.41;;;25.58;55.62
7966;BME280;4028;43.272;26.932;2023-06-04T10:53:14;99639.19;;;25.45;55.38
7966;BME280;4028;43.272;26.932;2023-06-04T10:55:47;99640.34;;;25.49;56.31
7966;BME280;4028;43.272;26.932;2023-06-04T10:58:13;99626.84;;;25.30;54.51
7966;BME280;4028;43.272;26.932;2023-06-04T11:00:40;99639.63;;;25.41;56.35
7966;BME280;4028;43.272;26.932;2023-06-04T11:03:07;99630.97;;;25.33;55.61
7966;BME280;4028;43.272;26.932;2023-06-04T11:05:37;99635.13;;;24.99;57.43
7966;BME280;4028;43.272;26.932;2023-06-04T11:08:07;99640.38;;;24.94;54.81
7966;BME280;4028;43.272;26.932;2023-06-04T11:10:38;99645.94;;;24.99;58.64
7966;BME280;4028;43.272;26.932;2023-06-04T11:13:04;99636.34;;;25.21;56.34
7966;BME280;4028;43.272;26.932;2023-06-04T11:15:44;99651.09;;;25.25;61.16
7966;BME280;4028;43.272;26.932;2023-06-04T11:18:14;99645.56;;;25.32;58.06
7966;BME280;4028;43.272;26.932;2023-06-04T11:20:40;99648.97;;;25.27;54.06
7966;BME280;4028;43.272;26.932;2023-06-04T11:23:07;99639.78;;;25.28;55.86
7966;BME280;4028;43.272;26.932;2023-06-04T11:25:33;99641.41;;;24.93;52.92
7966;BME280;4028;43.272;26.932;2023-06-04T11:28:00;99645.34;;;24.78;55.36
7966;BME280;4028;43.272;26.932;2023-06-04T11:30:27;99650.28;;;24.81;54.63
7966;BME280;4028;43.272;26.932;2023-06-04T11:33:03;99639.75;;;24.92;56.63
7966;BME280;4028;43.272;26.932;2023-06-04T11:35:29;99651.47;;;25.10;52.54
7966;BME280;4028;43.272;26.932;2023-06-04T11:37:56;99640.97;;;24.77;54.55
7966;BME280;4028;43.272;26.932;2023-06-04T11:40:22;99655.41;;;24.89;56.36
7966;BME280;4028;43.272;26.932;2023-06-04T11:42:49;99656.75;;;24.62;52.99
7966;BME280;4028;43.272;26.932;2023-06-04T11:45:16;99647.41;;;24.58;56.94
7966;BME280;4028;43.272;26.932;2023-06-04T11:48:01;99645.06;;;24.61;56.13
7966;BME280;4028;43.272;26.932;2023-06-04T11:50:29;99639.66;;;24.61;55.54
7966;BME280;4028;43.272;26.932;2023-06-04T11:52:54;99650.13;;;24.76;56.84
7966;BME280;4028;43.272;26.932;2023-06-04T11:55:20;99633.75;;;24.89;56.06
7966;BME280;4028;43.272;26.932;2023-06-04T11:57:47;99641.88;;;24.89;55.84
7966;BME280;4028;43.272;26.932;2023-06-04T12:00:14;99636.22;;;24.91;55.54
7966;BME280;4028;43.272;26.932;2023-06-04T12:02:54;99647.13;;;25.03;56.52
7966;BME280;4028;43.272;26.932;2023-06-04T12:05:21;99639.25;;;24.83;53.57
7966;BME280;4028;43.272;26.932;2023-06-04T12:07:49;99642.16;;;24.81;55.79
7966;BME280;4028;43.272;26.932;2023-06-04T12:10:21;99640.75;;;24.79;53.96
7966;BME280;4028;43.272;26.932;2023-06-04T12:12:46;99636.16;;;24.79;55.50
7966;BME280;4028;43.272;26.932;2023-06-04T12:15:19;99634.03;;;24.81;54.68
7966;BME280;4028;43.272;26.932;2023-06-04T12:17:54;99639.94;;;24.78;57.30
7966;BME280;4028;43.272;26.932;2023-06-04T12:20:39;99634.88;;;24.82;55.52
7966;BME280;4028;43.272;26.932;2023-06-04T12:23:05;99635.09;;;24.62;54.64
7966;BME280;4028;43.272;26.932;2023-06-04T12:25:33;99627.38;;;24.41;55.36
7966;BME280;4028;43.272;26.932;2023-06-04T12:27:59;99625.78;;;24.58;55.59
7966;BME280;4028;43.272;26.932;2023-06-04T12:30:40;99632.09;;;24.70;55.53
7966;BME280;4028;43.272;26.932;2023-06-04T12:33:06;99628.44;;;24.83;55.55
7966;BME280;4028;43.272;26.932;2023-06-04T12:35:33;99625.78;;;24.76;53.86
7966;BME280;4028;43.272;26.932;2023-06-04T12:37:58;99620.25;;;24.46;54.34
7966;BME280;4028;43.272;26.932;2023-06-04T12:40:24;99622.75;;;24.48;55.58
7966;BME280;4028;43.272;26.932;2023-06-04T12:42:50;99629.22;;;24.47;56.58
7966;BME280;4028;43.272;26.932;2023-06-04T12:45:16;99634.19;;;24.68;58.34
7966;BME280;4028;43.272;26.932;2023-06-04T12:47:42;99628.63;;;24.81;58.07
7966;BME280;4028;43.272;26.932;2023-06-04T12:50:08;99631.25;;;24.70;54.92
7966;BME280;4028;43.272;26.932;2023-06-04T12:52:33;99621.81;;;24.79;55.30
7966;BME280;4028;43.272;26.932;2023-06-04T12:54:59;99619.03;;;24.67;60.76
7966;BME280;4028;43.272;26.932;2023-06-04T12:57:24;99627.66;;;24.76;58.46
7966;BME280;4028;43.272;26.932;2023-06-04T12:59:50;99631.56;;;24.80;56.16
7966;BME280;4028;43.272;26.932;2023-06-04T13:02:15;99627.09;;;24.49;55.79
7966;BME280;4028;43.272;26.932;2023-06-04T13:04:41;99627.16;;;24.17;56.46
7966;BME280;4028;43.272;26.932;2023-06-04T13:07:08;99623.06;;;24.33;56.38
7966;BME280;4028;43.272;26.932;2023-06-04T13:09:33;99628.59;;;24.45;55.87
7966;BME280;4028;43.272;26.932;2023-06-04T13:12:00;99625.16;;;24.56;58.25